Time;durP1;ratioP1;P1;durP2;ratioP2;P2;SDS_P1;SDS_P2;PMS_P1;PMS_P2;Temp;Humidity;BMP_temperature;BMP_pressure;BME280_temperature;BME280_humidity;BME280_pressure;Samples;Min_cycle;Max_cycle;Signal;HPM_P1;HPM_P2
2023/10/22 00:02:02;;;;;;;1.97;1.20;;;;;;;;;;5086382;28;20863;-62
2023/10/22 00:04:29;;;;;;;2.97;1.60;;;;;;;;;;5087313;28;20210;-61
2023/10/22 00:06:56;;;;;;;1.37;1.20;;;;;;;;;;5086958;28;20241;-61
2023/10/22 00:09:23;;;;;;;3.23;1.37;;;;;;;;;;5086952;28;20219;-62
2023/10/22 00:11:51;;;;;;;2.03;1.20;;;;;;;;;;5086922;28;20218;-62
2023/10/22 00:14:18;;;;;;;1.80;1.10;;;;;;;;;;5086859;28;20242;-62
2023/10/22 00:16:45;;;;;;;1.47;0.97;;;;;;;;;;5086799;28;20217;-62
2023/10/22 00:19:13;;;;;;;1.80;1.23;;;;;;;;;;5087112;28;20688;-61
2023/10/22 00:21:40;;;;;;;2.67;1.30;;;;;;;;;;5086506;28;20287;-61
2023/10/22 00:24:07;;;;;;;2.80;1.50;;;;;;;;;;5086505;28;20369;-61
2023/10/22 00:26:34;;;;;;;3.80;1.40;;;;;;;;;;5086827;28;20207;-61
2023/10/22 00:29:03;;;;;;;1.37;1.17;;;;;;;;;;5086498;28;20291;-61
2023/10/22 00:31:30;;;;;;;2.37;1.10;;;;;;;;;;5085952;28;20457;-62
2023/10/22 00:33:57;;;;;;;8.73;1.47;;;;;;;;;;5086466;28;20229;-61
2023/10/22 00:36:24;;;;;;;1.30;1.20;;;;;;;;;;5085302;28;20214;-61
2023/10/22 00:38:51;;;;;;;3.43;1.40;;;;;;;;;;5085856;28;20682;-62
2023/10/22 00:41:19;;;;;;;1.37;1.07;;;;;;;;;;5086475;28;20202;-61
2023/10/22 00:43:46;;;;;;;2.70;1.30;;;;;;;;;;5085803;28;20209;-61
2023/10/22 00:46:18;;;;;;;1.37;1.23;;;;;;;;;;5085942;28;20710;-61
2023/10/22 00:48:45;;;;;;;2.20;1.23;;;;;;;;;;5085960;28;20673;-62
2023/10/22 00:51:12;;;;;;;1.70;1.17;;;;;;;;;;5086571;28;20229;-62
2023/10/22 00:53:39;;;;;;;3.60;1.30;;;;;;;;;;5085629;28;20623;-62
2023/10/22 00:56:06;;;;;;;1.40;1.30;;;;;;;;;;5086078;28;20206;-61
2023/10/22 00:58:35;;;;;;;1.20;1.20;;;;;;;;;;5085996;28;20205;-61
2023/10/22 01:01:03;;;;;;;1.40;1.40;;;;;;;;;;5085952;28;20642;-61
2023/10/22 01:03:32;;;;;;;1.23;1.13;;;;;;;;;;5085084;28;20292;-62
2023/10/22 01:05:59;;;;;;;1.30;1.30;;;;;;;;;;5086173;28;20230;-61
2023/10/22 01:08:26;;;;;;;1.83;1.30;;;;;;;;;;5086039;28;20600;-62
2023/10/22 01:10:53;;;;;;;3.23;1.37;;;;;;;;;;5085733;28;20421;-62
2023/10/22 01:13:20;;;;;;;1.43;1.33;;;;;;;;;;5085729;28;20206;-61
2023/10/22 01:15:47;;;;;;;2.43;1.23;;;;;;;;;;5085905;28;20190;-62
2023/10/22 01:18:14;;;;;;;2.20;1.20;;;;;;;;;;5085596;28;20259;-61
2023/10/22 01:20:43;;;;;;;2.57;1.30;;;;;;;;;;5086121;28;20232;-61
2023/10/22 01:23:12;;;;;;;4.00;1.23;;;;;;;;;;5085383;28;20211;-62
2023/10/22 01:25:39;;;;;;;1.77;1.10;;;;;;;;;;5085658;28;20226;-61
2023/10/22 01:28:06;;;;;;;2.30;1.10;;;;;;;;;;5084768;28;20748;-62
2023/10/22 01:30:33;;;;;;;4.93;1.30;;;;;;;;;;5085927;28;20226;-61
2023/10/22 01:33:01;;;;;;;1.80;1.20;;;;;;;;;;5085375;28;20218;-61
2023/10/22 01:35:28;;;;;;;3.03;1.17;;;;;;;;;;5085371;28;20257;-62
2023/10/22 01:37:55;;;;;;;1.63;1.20;;;;;;;;;;5086028;28;20229;-61
2023/10/22 01:40:23;;;;;;;3.50;1.30;;;;;;;;;;5085399;28;20759;-61
2023/10/22 01:42:51;;;;;;;2.77;1.10;;;;;;;;;;5085784;28;20271;-61
2023/10/22 01:45:19;;;;;;;1.40;1.30;;;;;;;;;;5085489;28;20212;-62
2023/10/22 01:47:46;;;;;;;5.30;1.00;;;;;;;;;;5089039;28;20255;-61
2023/10/22 01:50:13;;;;;;;1.00;1.00;;;;;;;;;;5089278;28;20309;-62
2023/10/22 01:52:41;;;;;;;3.97;1.20;;;;;;;;;;5090040;28;20304;-61
2023/10/22 01:55:08;;;;;;;1.43;1.30;;;;;;;;;;5089160;28;20205;-61
2023/10/22 01:57:36;;;;;;;3.20;1.10;;;;;;;;;;5089518;28;20206;-62
2023/10/22 02:00:04;;;;;;;2.40;1.20;;;;;;;;;;5090089;28;20209;-61
2023/10/22 02:02:31;;;;;;;4.63;1.03;;;;;;;;;;5089301;28;20252;-62
2023/10/22 02:04:58;;;;;;;4.03;1.10;;;;;;;;;;5088758;28;20475;-61
2023/10/22 02:07:25;;;;;;;1.33;1.00;;;;;;;;;;5089432;28;20217;-61
2023/10/22 02:09:55;;;;;;;1.90;0.90;;;;;;;;;;5089013;28;20229;-61
2023/10/22 02:12:27;;;;;;;3.17;1.10;;;;;;;;;;5089059;28;20817;-62
2023/10/22 02:14:55;;;;;;;0.80;0.80;;;;;;;;;;5088596;28;20240;-61
2023/10/22 02:17:23;;;;;;;2.30;1.03;;;;;;;;;;5088581;28;20207;-61
2023/10/22 02:19:50;;;;;;;2.67;1.10;;;;;;;;;;5089016;28;20674;-61
2023/10/22 02:22:17;;;;;;;2.77;0.70;;;;;;;;;;5088881;28;20210;-62
2023/10/22 02:24:44;;;;;;;1.90;0.90;;;;;;;;;;5089392;28;20218;-62
2023/10/22 02:27:11;;;;;;;1.63;0.90;;;;;;;;;;5088926;28;20684;-61
2023/10/22 02:29:38;;;;;;;1.90;0.70;;;;;;;;;;5088489;28;20765;-61
2023/10/22 02:32:07;;;;;;;1.67;0.87;;;;;;;;;;5089239;28;20214;-61
2023/10/22 02:34:34;;;;;;;1.77;0.90;;;;;;;;;;5088613;28;20218;-61
2023/10/22 02:37:01;;;;;;;0.53;0.53;;;;;;;;;;5088243;28;20501;-61
2023/10/22 02:39:28;;;;;;;1.63;0.93;;;;;;;;;;5089215;28;20237;-60
2023/10/22 02:41:55;;;;;;;1.47;0.70;;;;;;;;;;5088355;28;20209;-61
2023/10/22 02:44:23;;;;;;;2.60;1.13;;;;;;;;;;5088615;28;20214;-60
2023/10/22 02:46:50;;;;;;;0.70;0.70;;;;;;;;;;5088834;28;20682;-61
2023/10/22 02:49:18;;;;;;;1.60;0.70;;;;;;;;;;5087901;28;20206;-62
2023/10/22 02:51:45;;;;;;;1.00;0.90;;;;;;;;;;5088197;28;20346;-62
2023/10/22 02:54:12;;;;;;;4.63;1.27;;;;;;;;;;5088607;28;20621;-61
2023/10/22 02:56:39;;;;;;;2.33;0.90;;;;;;;;;;5088279;28;20218;-62
2023/10/22 02:59:07;;;;;;;0.70;0.60;;;;;;;;;;5088020;28;20920;-61
2023/10/22 03:01:35;;;;;;;3.13;0.60;;;;;;;;;;5088806;28;20206;-62
2023/10/22 03:04:02;;;;;;;2.57;0.80;;;;;;;;;;5088609;28;20288;-61
2023/10/22 03:06:31;;;;;;;3.93;0.87;;;;;;;;;;5087266;28;20225;-61
2023/10/22 03:08:58;;;;;;;3.63;0.73;;;;;;;;;;5087889;28;20218;-62
2023/10/22 03:11:25;;;;;;;2.87;0.63;;;;;;;;;;5088475;28;20226;-62
2023/10/22 03:13:52;;;;;;;2.67;0.60;;;;;;;;;;5087827;28;20241;-61
2023/10/22 03:16:19;;;;;;;1.53;0.70;;;;;;;;;;5088230;28;20214;-62
2023/10/22 03:18:47;;;;;;;0.70;0.70;;;;;;;;;;5088219;28;20202;-61
2023/10/22 03:21:16;;;;;;;2.80;0.80;;;;;;;;;;5087863;28;20305;-61
2023/10/22 03:23:44;;;;;;;3.30;0.77;;;;;;;;;;5087867;28;20602;-61
2023/10/22 03:26:14;;;;;;;1.60;0.80;;;;;;;;;;5088388;28;20690;-61
2023/10/22 03:28:41;;;;;;;1.37;0.70;;;;;;;;;;5087698;28;20204;-61
2023/10/22 03:31:08;;;;;;;5.63;0.87;;;;;;;;;;5087585;28;20483;-62
2023/10/22 03:33:35;;;;;;;0.83;0.60;;;;;;;;;;5088119;28;20226;-61
2023/10/22 03:36:03;;;;;;;4.57;0.70;;;;;;;;;;5087802;28;20202;-61
2023/10/22 03:38:30;;;;;;;5.50;0.70;;;;;;;;;;5087103;28;20648;-62
2023/10/22 03:41:00;;;;;;;2.47;0.53;;;;;;;;;;5087551;28;20666;-61
2023/10/22 03:43:28;;;;;;;0.50;0.50;;;;;;;;;;5088125;28;20210;-61
2023/10/22 03:45:55;;;;;;;1.37;0.90;;;;;;;;;;5087348;28;20240;-62
2023/10/22 03:48:22;;;;;;;1.73;0.77;;;;;;;;;;5087398;28;20552;-62
2023/10/22 03:50:49;;;;;;;2.27;0.60;;;;;;;;;;5087115;28;20232;-61
2023/10/22 03:53:16;;;;;;;1.13;0.80;;;;;;;;;;5087148;28;20222;-61
2023/10/22 03:55:43;;;;;;;0.70;0.70;;;;;;;;;;5087241;28;20216;-61
2023/10/22 03:58:12;;;;;;;2.50;0.63;;;;;;;;;;5086948;28;20206;-61
2023/10/22 04:00:39;;;;;;;1.50;0.53;;;;;;;;;;5086815;28;20205;-61
2023/10/22 04:03:06;;;;;;;3.90;1.07;;;;;;;;;;5087071;28;20234;-61
2023/10/22 04:05:33;;;;;;;4.20;0.60;;;;;;;;;;5086979;28;20230;-62
2023/10/22 04:08:01;;;;;;;4.17;0.80;;;;;;;;;;5086901;28;20241;-61
2023/10/22 04:10:28;;;;;;;2.10;0.57;;;;;;;;;;5086341;28;20223;-63
2023/10/22 04:12:55;;;;;;;1.80;0.53;;;;;;;;;;5087620;28;20210;-61
2023/10/22 04:15:23;;;;;;;2.93;0.70;;;;;;;;;;5086736;28;20246;-62
2023/10/22 04:17:50;;;;;;;2.83;0.70;;;;;;;;;;5086771;28;20238;-61
2023/10/22 04:20:17;;;;;;;3.37;1.23;;;;;;;;;;5086181;28;20573;-61
2023/10/22 04:22:45;;;;;;;2.13;0.50;;;;;;;;;;5085409;28;20259;-62
2023/10/22 04:25:12;;;;;;;1.33;0.63;;;;;;;;;;5086587;28;20213;-61
2023/10/22 04:27:39;;;;;;;2.53;0.73;;;;;;;;;;5087187;28;20210;-61
2023/10/22 04:30:07;;;;;;;1.83;1.17;;;;;;;;;;5086155;28;20229;-61
2023/10/22 04:32:36;;;;;;;0.60;0.60;;;;;;;;;;5086388;28;20210;-62
2023/10/22 04:35:05;;;;;;;2.23;0.77;;;;;;;;;;5086560;28;20213;-62
2023/10/22 04:37:32;;;;;;;1.60;0.70;;;;;;;;;;5086637;28;20214;-61
2023/10/22 04:39:59;;;;;;;3.30;0.70;;;;;;;;;;5086061;28;20738;-61
2023/10/22 04:42:26;;;;;;;1.40;0.60;;;;;;;;;;5086180;28;20208;-62
2023/10/22 04:44:53;;;;;;;2.37;0.50;;;;;;;;;;5085619;28;20206;-61
2023/10/22 04:47:20;;;;;;;4.40;0.53;;;;;;;;;;5084846;28;20306;-62
2023/10/22 04:49:49;;;;;;;1.20;0.63;;;;;;;;;;5081416;28;20697;-62
2023/10/22 04:52:22;;;;;;;3.13;0.97;;;;;;;;;;5085956;28;20261;-62
2023/10/22 04:54:50;;;;;;;3.67;0.70;;;;;;;;;;5086757;28;20249;-61
2023/10/22 04:57:17;;;;;;;3.87;0.77;;;;;;;;;;5085909;28;20305;-62
2023/10/22 04:59:45;;;;;;;6.83;0.60;;;;;;;;;;5086207;28;20241;-62
2023/10/22 05:02:12;;;;;;;3.40;0.90;;;;;;;;;;5086424;28;20199;-61
2023/10/22 05:04:39;;;;;;;1.77;1.00;;;;;;;;;;5085440;28;20210;-62
2023/10/22 05:07:07;;;;;;;5.00;1.00;;;;;;;;;;5086304;28;20226;-61
2023/10/22 05:09:35;;;;;;;1.97;0.60;;;;;;;;;;5086369;28;20331;-61
2023/10/22 05:12:02;;;;;;;1.60;0.67;;;;;;;;;;5085117;28;20709;-61
2023/10/22 05:14:30;;;;;;;2.13;0.73;;;;;;;;;;5085403;28;20234;-62
2023/10/22 05:16:57;;;;;;;2.17;0.67;;;;;;;;;;5086243;28;20301;-61
2023/10/22 05:19:24;;;;;;;2.23;0.73;;;;;;;;;;5085509;28;20221;-62
2023/10/22 05:21:51;;;;;;;0.83;0.83;;;;;;;;;;5085174;28;20206;-61
2023/10/22 05:24:20;;;;;;;1.57;0.90;;;;;;;;;;5085527;28;20206;-61
2023/10/22 05:26:47;;;;;;;6.37;0.83;;;;;;;;;;5085490;28;20723;-61
2023/10/22 05:29:23;;;;;;;0.60;0.60;;;;;;;;;;5085874;28;20432;-62
2023/10/22 05:31:50;;;;;;;1.30;1.13;;;;;;;;;;5085061;28;20225;-62
2023/10/22 05:34:17;;;;;;;3.00;1.00;;;;;;;;;;5085200;28;20225;-61
2023/10/22 05:36:44;;;;;;;1.13;0.80;;;;;;;;;;5083539;28;20206;-61
2023/10/22 05:39:11;;;;;;;4.23;0.73;;;;;;;;;;5085243;28;20908;-61
2023/10/22 05:41:40;;;;;;;3.23;0.80;;;;;;;;;;5085959;28;20570;-62
2023/10/22 05:44:08;;;;;;;3.90;0.70;;;;;;;;;;5085429;28;20293;-61
2023/10/22 05:46:36;;;;;;;1.57;0.80;;;;;;;;;;5085051;28;20651;-61
2023/10/22 05:49:03;;;;;;;3.57;0.97;;;;;;;;;;5085554;28;20869;-62
2023/10/22 05:51:30;;;;;;;1.40;0.77;;;;;;;;;;5084816;28;20278;-61
2023/10/22 05:53:57;;;;;;;2.43;0.80;;;;;;;;;;5085431;28;20203;-61
2023/10/22 05:56:26;;;;;;;3.63;1.37;;;;;;;;;;5085869;28;20222;-61
2023/10/22 05:58:54;;;;;;;3.17;0.83;;;;;;;;;;5086067;28;20210;-61
2023/10/22 06:01:21;;;;;;;0.70;0.70;;;;;;;;;;5085410;28;20207;-62
2023/10/22 06:03:48;;;;;;;1.70;0.60;;;;;;;;;;5085359;28;20232;-61
2023/10/22 06:06:18;;;;;;;0.80;0.70;;;;;;;;;;5085172;28;20601;-61
2023/10/22 06:08:46;;;;;;;2.70;1.03;;;;;;;;;;5085304;28;20237;-61
2023/10/22 06:11:14;;;;;;;3.20;1.00;;;;;;;;;;5085195;28;20226;-61
2023/10/22 06:13:41;;;;;;;4.90;1.10;;;;;;;;;;5085788;28;20246;-61
2023/10/22 06:16:09;;;;;;;2.10;1.23;;;;;;;;;;5085103;28;20202;-62
2023/10/22 06:18:37;;;;;;;1.57;0.60;;;;;;;;;;5085094;28;20786;-61
2023/10/22 06:21:10;;;;;;;8.10;1.03;;;;;;;;;;5085484;28;20232;-61
2023/10/22 06:23:37;;;;;;;2.00;0.90;;;;;;;;;;5075564;28;20207;-62
2023/10/22 06:26:04;;;;;;;5.07;0.93;;;;;;;;;;5085388;28;20206;-60
2023/10/22 06:28:31;;;;;;;2.37;0.77;;;;;;;;;;5085053;28;20214;-61
2023/10/22 06:31:04;;;;;;;6.60;1.23;;;;;;;;;;5085543;28;20254;-61
2023/10/22 06:33:33;;;;;;;3.67;0.70;;;;;;;;;;5088440;28;20220;-61
2023/10/22 06:36:00;;;;;;;2.30;0.77;;;;;;;;;;5085660;28;20215;-61
2023/10/22 06:38:27;;;;;;;5.30;0.83;;;;;;;;;;5084110;28;20202;-63
2023/10/22 06:40:54;;;;;;;1.00;0.70;;;;;;;;;;5088923;28;20209;-62
2023/10/22 06:43:21;;;;;;;2.37;0.80;;;;;;;;;;5089420;28;20693;-61
2023/10/22 06:45:48;;;;;;;2.70;0.80;;;;;;;;;;5088141;28;20210;-61
2023/10/22 06:48:15;;;;;;;3.03;1.00;;;;;;;;;;5089228;28;20214;-62
2023/10/22 06:50:44;;;;;;;2.03;0.90;;;;;;;;;;5082032;28;20213;-63
2023/10/22 06:53:11;;;;;;;2.93;0.97;;;;;;;;;;5068312;28;20325;-63
2023/10/22 06:55:42;;;;;;;3.03;0.77;;;;;;;;;;5068710;28;20207;-63
2023/10/22 06:58:09;;;;;;;1.07;0.80;;;;;;;;;;5068873;28;20206;-63
2023/10/22 07:00:36;;;;;;;2.00;0.90;;;;;;;;;;5069743;28;20230;-63
2023/10/22 07:03:03;;;;;;;1.57;0.70;;;;;;;;;;5080289;28;20210;-63
2023/10/22 07:05:31;;;;;;;2.17;0.70;;;;;;;;;;5083064;28;20230;-62
2023/10/22 07:07:59;;;;;;;3.33;0.70;;;;;;;;;;5088315;28;20304;-63
2023/10/22 07:10:26;;;;;;;3.30;0.60;;;;;;;;;;5088183;28;20790;-63
2023/10/22 07:12:54;;;;;;;3.43;0.90;;;;;;;;;;5088580;28;20226;-63
2023/10/22 07:15:21;;;;;;;2.77;0.47;;;;;;;;;;5083916;28;20329;-63
2023/10/22 07:17:49;;;;;;;5.03;1.30;;;;;;;;;;5076411;28;20203;-63
2023/10/22 07:20:17;;;;;;;4.03;0.63;;;;;;;;;;5078298;28;20202;-63
2023/10/22 07:22:44;;;;;;;3.23;1.10;;;;;;;;;;5083554;28;20195;-63
2023/10/22 07:25:12;;;;;;;5.70;1.20;;;;;;;;;;5087696;28;20210;-63
2023/10/22 07:27:39;;;;;;;3.70;1.03;;;;;;;;;;5087795;28;20207;-63
2023/10/22 07:30:07;;;;;;;1.23;0.60;;;;;;;;;;5088438;28;20207;-63
2023/10/22 07:32:36;;;;;;;6.73;0.80;;;;;;;;;;5087071;28;20702;-63
2023/10/22 07:35:04;;;;;;;2.05;0.55;;;;;;;;;;5076787;28;20226;-63
2023/10/22 07:37:31;;;;;;;2.78;1.00;;;;;;;;;;5079848;28;20209;-62
2023/10/22 07:39:58;;;;;;;5.60;0.70;;;;;;;;;;5087644;28;20202;-62
2023/10/22 07:42:27;;;;;;;4.47;1.07;;;;;;;;;;5087503;28;20593;-63
2023/10/22 07:44:54;;;;;;;5.00;1.00;;;;;;;;;;5086776;28;20199;-62
2023/10/22 07:47:21;;;;;;;5.50;1.13;;;;;;;;;;5072203;28;20198;-62
2023/10/22 07:49:52;;;;;;;2.60;0.80;;;;;;;;;;5086592;28;20198;-63
2023/10/22 07:52:19;;;;;;;4.60;0.70;;;;;;;;;;5086852;28;20313;-63
2023/10/22 07:54:47;;;;;;;5.25;0.85;;;;;;;;;;5077308;28;20233;-62
2023/10/22 07:57:14;;;;;;;3.10;0.88;;;;;;;;;;5079585;28;20355;-63
2023/10/22 07:59:42;;;;;;;0.88;0.75;;;;;;;;;;5067442;28;20709;-63
2023/10/22 08:02:10;;;;;;;4.97;1.08;;;;;;;;;;5071804;28;20213;-63
2023/10/22 08:04:38;;;;;;;7.00;1.08;;;;;;;;;;5086119;28;20739;-63
2023/10/22 08:07:05;;;;;;;6.18;0.90;;;;;;;;;;5085528;28;20980;-63
2023/10/22 08:09:32;;;;;;;4.85;1.42;;;;;;;;;;5085418;28;20707;-63
2023/10/22 08:11:59;;;;;;;4.50;0.80;;;;;;;;;;5086621;28;20267;-62
2023/10/22 08:14:26;;;;;;;1.88;0.82;;;;;;;;;;5084806;28;21014;-62
2023/10/22 08:16:54;;;;;;;2.80;1.10;;;;;;;;;;5086888;28;20210;-62
2023/10/22 08:19:21;;;;;;;2.97;0.93;;;;;;;;;;5086100;28;20217;-62
2023/10/22 08:21:48;;;;;;;2.10;0.73;;;;;;;;;;5084654;28;20194;-62
2023/10/22 08:24:15;;;;;;;3.50;0.80;;;;;;;;;;5076277;28;20214;-62
2023/10/22 08:26:42;;;;;;;4.20;0.68;;;;;;;;;;5081482;28;20207;-62
2023/10/22 08:29:09;;;;;;;3.67;1.20;;;;;;;;;;5082670;28;20214;-62
2023/10/22 08:31:38;;;;;;;6.15;0.93;;;;;;;;;;5066851;28;20234;-62
2023/10/22 08:34:06;;;;;;;2.05;0.65;;;;;;;;;;5078362;28;20215;-61
2023/10/22 08:36:35;;;;;;;2.83;0.80;;;;;;;;;;5081119;28;20199;-65
2023/10/22 08:39:02;;;;;;;2.70;0.70;;;;;;;;;;5086395;28;20271;-61
2023/10/22 08:41:35;;;;;;;2.60;0.80;;;;;;;;;;5084910;28;20212;-62
2023/10/22 08:44:03;;;;;;;3.13;0.55;;;;;;;;;;5086663;28;20210;-62
2023/10/22 08:46:30;;;;;;;4.85;0.70;;;;;;;;;;5084480;28;20756;-62
2023/10/22 08:48:57;;;;;;;2.25;0.82;;;;;;;;;;5085817;28;20211;-61
2023/10/22 08:51:26;;;;;;;6.60;0.77;;;;;;;;;;5085903;28;20206;-61
2023/10/22 08:53:53;;;;;;;8.95;0.63;;;;;;;;;;5085488;28;20198;-62
2023/10/22 08:56:20;;;;;;;5.38;1.00;;;;;;;;;;5084086;28;20210;-61
2023/10/22 08:58:47;;;;;;;2.05;0.70;;;;;;;;;;5085820;28;20202;-61
2023/10/22 09:01:15;;;;;;;4.22;0.95;;;;;;;;;;5081413;28;20222;-66
2023/10/22 09:03:42;;;;;;;4.20;0.75;;;;;;;;;;5080937;28;20239;-62
2023/10/22 09:06:11;;;;;;;8.55;1.08;;;;;;;;;;5085492;28;20230;-64
2023/10/22 09:08:43;;;;;;;2.80;0.75;;;;;;;;;;5078187;28;20655;-61
2023/10/22 09:11:20;;;;;;;1.33;0.70;;;;;;;;;;5078271;28;20302;-63
2023/10/22 09:13:48;;;;;;;2.70;0.80;;;;;;;;;;5082912;28;20238;-61
2023/10/22 09:16:28;;;;;;;6.32;0.93;;;;;;;;;;5067640;28;20412;-62
2023/10/22 09:18:55;;;;;;;1.40;0.50;;;;;;;;;;5085785;28;20261;-62
2023/10/22 09:21:22;;;;;;;6.50;1.00;;;;;;;;;;5076270;28;20556;-62
2023/10/22 09:24:04;;;;;;;5.55;1.33;;;;;;;;;;5071461;28;20542;-62
2023/10/22 09:26:41;;;;;;;4.07;0.95;;;;;;;;;;5079912;28;20221;-63
2023/10/22 09:29:08;;;;;;;4.00;0.95;;;;;;;;;;5084276;28;20205;-62
2023/10/22 09:31:35;;;;;;;3.65;0.93;;;;;;;;;;5084180;28;20674;-63
2023/10/22 09:34:03;;;;;;;2.60;0.60;;;;;;;;;;5083049;28;20210;-63
2023/10/22 09:36:30;;;;;;;5.20;0.93;;;;;;;;;;5084919;28;20237;-62
2023/10/22 09:38:59;;;;;;;3.97;1.13;;;;;;;;;;5084630;28;20217;-63
2023/10/22 09:41:27;;;;;;;4.35;0.98;;;;;;;;;;5084748;28;20267;-63
2023/10/22 09:43:54;;;;;;;2.72;0.73;;;;;;;;;;5080025;28;20218;-63
2023/10/22 09:46:22;;;;;;;1.48;1.02;;;;;;;;;;5083427;28;20264;-62
2023/10/22 09:48:49;;;;;;;5.57;1.20;;;;;;;;;;5080715;28;20198;-63
2023/10/22 09:51:17;;;;;;;7.63;1.17;;;;;;;;;;5074445;28;20690;-63
2023/10/22 09:53:46;;;;;;;9.57;1.33;;;;;;;;;;5071676;28;20732;-62
2023/10/22 09:56:17;;;;;;;4.85;0.95;;;;;;;;;;5074730;28;20195;-63
2023/10/22 09:58:45;;;;;;;4.40;1.02;;;;;;;;;;5069030;28;20203;-64
2023/10/22 10:01:12;;;;;;;2.88;0.95;;;;;;;;;;5066093;28;20219;-64
2023/10/22 10:03:41;;;;;;;6.68;1.02;;;;;;;;;;5080583;28;20203;-63
2023/10/22 10:06:09;;;;;;;5.95;0.90;;;;;;;;;;5079493;28;20623;-63
2023/10/22 10:08:37;;;;;;;3.80;1.15;;;;;;;;;;5068416;28;20225;-63
2023/10/22 10:11:04;;;;;;;1.63;0.80;;;;;;;;;;5068805;28;20210;-62
2023/10/22 10:13:35;;;;;;;3.90;1.02;;;;;;;;;;5088213;28;20241;-63
2023/10/22 10:16:03;;;;;;;2.10;0.68;;;;;;;;;;5086108;28;20289;-64
2023/10/22 10:18:48;;;;;;;5.05;1.00;;;;;;;;;;5084914;28;20665;-63
2023/10/22 10:21:33;;;;;;;1.95;0.50;;;;;;;;;;5087653;28;20566;-64
2023/10/22 10:24:20;;;;;;;0.80;0.75;;;;;;;;;;5083321;28;20209;-62
2023/10/22 10:26:47;;;;;;;3.22;0.70;;;;;;;;;;5088141;28;20337;-64
2023/10/22 10:29:16;;;;;;;4.38;0.70;;;;;;;;;;5088398;28;20612;-63
2023/10/22 10:31:45;;;;;;;1.38;0.40;;;;;;;;;;5087683;28;20216;-63
2023/10/22 10:34:21;;;;;;;4.32;0.70;;;;;;;;;;5088079;28;20351;-62
2023/10/22 10:36:49;;;;;;;1.60;0.93;;;;;;;;;;5071134;28;20245;-62
2023/10/22 10:39:36;;;;;;;4.15;0.77;;;;;;;;;;5088177;28;20210;-62
2023/10/22 10:42:04;;;;;;;9.90;0.80;;;;;;;;;;5087190;28;20669;-62
2023/10/22 10:44:35;;;;;;;4.55;1.08;;;;;;;;;;5088990;28;20309;-62
2023/10/22 10:47:20;;;;;;;4.40;1.00;;;;;;;;;;5086935;28;20202;-62
2023/10/22 10:49:55;;;;;;;2.95;1.10;;;;;;;;;;5077546;28;20328;-62
2023/10/22 10:52:22;;;;;;;1.95;0.60;;;;;;;;;;5087297;28;20869;-62
2023/10/22 10:54:59;;;;;;;1.83;1.00;;;;;;;;;;5079346;28;20214;-63
2023/10/22 10:57:33;;;;;;;4.32;0.77;;;;;;;;;;5069019;28;20211;-62
2023/10/22 11:00:04;;;;;;;4.97;0.80;;;;;;;;;;5065792;28;20233;-62
2023/10/22 11:02:31;;;;;;;3.22;0.68;;;;;;;;;;5067156;28;20257;-63
2023/10/22 11:04:58;;;;;;;8.27;1.00;;;;;;;;;;5073736;28;20261;-62
2023/10/22 11:07:25;;;;;;;6.95;1.10;;;;;;;;;;5087628;28;20217;-63
2023/10/22 11:09:52;;;;;;;4.47;0.90;;;;;;;;;;5087670;28;20221;-63
2023/10/22 11:12:21;;;;;;;1.98;0.80;;;;;;;;;;5087141;28;20202;-62
2023/10/22 11:14:54;;;;;;;1.58;0.60;;;;;;;;;;5084188;28;20265;-62
2023/10/22 11:17:22;;;;;;;5.60;0.90;;;;;;;;;;5087484;28;20237;-62
2023/10/22 11:19:51;;;;;;;1.65;0.57;;;;;;;;;;5085544;28;20205;-62
2023/10/22 11:22:18;;;;;;;3.60;0.90;;;;;;;;;;5087101;28;20279;-62
2023/10/22 11:24:46;;;;;;;2.65;0.88;;;;;;;;;;5088202;28;20232;-65
2023/10/22 11:27:13;;;;;;;0.80;0.80;;;;;;;;;;5086787;28;20215;-62
2023/10/22 11:29:41;;;;;;;7.03;1.33;;;;;;;;;;5086854;28;20210;-62
2023/10/22 11:32:12;;;;;;;6.25;0.85;;;;;;;;;;5083235;28;20312;-62
2023/10/22 11:34:47;;;;;;;4.75;1.20;;;;;;;;;;5087112;28;20210;-61
2023/10/22 11:37:14;;;;;;;2.65;0.70;;;;;;;;;;5087521;28;20198;-61
2023/10/22 11:39:42;;;;;;;3.85;0.90;;;;;;;;;;5087022;28;20645;-62
2023/10/22 11:42:10;;;;;;;2.40;0.80;;;;;;;;;;5086281;28;20401;-62
2023/10/22 11:44:39;;;;;;;3.70;1.23;;;;;;;;;;5086977;28;20213;-62
2023/10/22 11:47:21;;;;;;;5.30;1.60;;;;;;;;;;5085614;28;20334;-62
2023/10/22 11:49:49;;;;;;;3.42;1.13;;;;;;;;;;5082263;28;20199;-63
2023/10/22 11:52:17;;;;;;;4.47;1.00;;;;;;;;;;5085733;28;20194;-63
2023/10/22 11:54:45;;;;;;;3.47;1.00;;;;;;;;;;5084726;28;20217;-63
2023/10/22 11:57:13;;;;;;;5.03;1.20;;;;;;;;;;5086291;28;20194;-62
2023/10/22 11:59:40;;;;;;;6.00;1.20;;;;;;;;;;5086712;28;20849;-61
2023/10/22 12:02:07;;;;;;;4.32;1.02;;;;;;;;;;5086911;28;20213;-62
2023/10/22 12:04:34;;;;;;;5.50;0.85;;;;;;;;;;5082644;28;20275;-61
2023/10/22 12:07:03;;;;;;;4.13;1.33;;;;;;;;;;5086249;28;20645;-61
2023/10/22 12:09:30;;;;;;;3.95;0.80;;;;;;;;;;5075506;28;20212;-62
2023/10/22 12:11:57;;;;;;;4.82;1.10;;;;;;;;;;5081383;28;20202;-61
2023/10/22 12:14:24;;;;;;;4.97;1.10;;;;;;;;;;5071303;28;20242;-61
2023/10/22 12:16:51;;;;;;;2.75;0.70;;;;;;;;;;5083513;28;20258;-61
2023/10/22 12:19:18;;;;;;;3.38;1.02;;;;;;;;;;5084972;28;20206;-61
2023/10/22 12:21:45;;;;;;;2.97;1.10;;;;;;;;;;5085612;28;20677;-67
2023/10/22 12:24:14;;;;;;;5.45;1.20;;;;;;;;;;5084236;28;20230;-65
2023/10/22 12:26:41;;;;;;;3.92;0.80;;;;;;;;;;5085759;28;20313;-65
2023/10/22 12:29:08;;;;;;;4.93;1.20;;;;;;;;;;5081123;28;20309;-65
2023/10/22 12:31:35;;;;;;;3.10;1.02;;;;;;;;;;5068425;28;20222;-66
2023/10/22 12:34:03;;;;;;;2.28;1.10;;;;;;;;;;5064796;28;20237;-66
2023/10/22 12:36:30;;;;;;;6.97;1.27;;;;;;;;;;5079420;28;20210;-65
2023/10/22 12:38:58;;;;;;;1.98;1.10;;;;;;;;;;5065743;28;20211;-65
2023/10/22 12:41:26;;;;;;;4.35;1.13;;;;;;;;;;5070402;28;20202;-65
2023/10/22 12:43:53;;;;;;;4.72;1.40;;;;;;;;;;5084945;28;20198;-64
2023/10/22 12:46:20;;;;;;;4.20;1.08;;;;;;;;;;5083450;28;20216;-65
2023/10/22 12:48:47;;;;;;;4.13;1.20;;;;;;;;;;5083237;28;20221;-66
2023/10/22 12:51:14;;;;;;;6.45;1.40;;;;;;;;;;5078763;28;20215;-66
2023/10/22 12:53:43;;;;;;;3.25;1.00;;;;;;;;;;5081185;28;20227;-67
2023/10/22 12:56:10;;;;;;;4.10;1.30;;;;;;;;;;5065842;28;20302;-66
2023/10/22 12:58:39;;;;;;;5.22;1.33;;;;;;;;;;5077310;28;20203;-67
2023/10/22 13:01:07;;;;;;;1.55;0.90;;;;;;;;;;5086185;28;20229;-67
2023/10/22 13:03:34;;;;;;;2.97;1.10;;;;;;;;;;5084008;28;20294;-66
2023/10/22 13:06:02;;;;;;;3.90;1.08;;;;;;;;;;5085154;28;20222;-67
2023/10/22 13:08:29;;;;;;;3.00;1.13;;;;;;;;;;5085277;28;20210;-69
2023/10/22 13:10:57;;;;;;;2.22;1.10;;;;;;;;;;5077316;28;20220;-66
2023/10/22 13:13:24;;;;;;;1.58;0.95;;;;;;;;;;5076320;28;20243;-67
2023/10/22 13:15:54;;;;;;;1.65;1.05;;;;;;;;;;5075177;28;20202;-67
2023/10/22 13:18:21;;;;;;;3.35;1.02;;;;;;;;;;5086069;28;20241;-67
2023/10/22 13:20:49;;;;;;;4.00;1.20;;;;;;;;;;5085377;28;20222;-66
2023/10/22 13:23:16;;;;;;;2.17;0.75;;;;;;;;;;5078843;28;20199;-67
2023/10/22 13:25:43;;;;;;;4.22;0.90;;;;;;;;;;5072411;28;20209;-68
2023/10/22 13:28:10;;;;;;;1.50;0.90;;;;;;;;;;5085212;28;20210;-66
2023/10/22 13:30:40;;;;;;;1.83;0.85;;;;;;;;;;5085195;28;20580;-66
2023/10/22 13:33:10;;;;;;;4.68;0.70;;;;;;;;;;5085438;28;20234;-66
2023/10/22 13:35:37;;;;;;;1.88;0.63;;;;;;;;;;5084827;28;20206;-66
2023/10/22 13:38:04;;;;;;;5.20;0.82;;;;;;;;;;5085263;28;20210;-68
2023/10/22 13:40:31;;;;;;;1.17;0.82;;;;;;;;;;5085096;28;20237;-64
2023/10/22 13:43:01;;;;;;;1.67;0.95;;;;;;;;;;5084665;28;20229;-68
2023/10/22 13:45:28;;;;;;;4.88;0.90;;;;;;;;;;5085186;28;20577;-71
2023/10/22 13:47:55;;;;;;;5.35;1.35;;;;;;;;;;5078894;28;20300;-67
2023/10/22 13:50:24;;;;;;;2.90;2.25;;;;;;;;;;5082113;28;20202;-65
2023/10/22 13:52:52;;;;;;;2.47;1.55;;;;;;;;;;5077489;28;20280;-67
2023/10/22 13:55:19;;;;;;;2.33;1.23;;;;;;;;;;5074550;28;20527;-64
2023/10/22 13:57:46;;;;;;;3.58;1.73;;;;;;;;;;5073823;28;20210;-66
2023/10/22 14:00:14;;;;;;;3.33;1.50;;;;;;;;;;5076602;28;20264;-66
2023/10/22 14:02:41;;;;;;;2.50;1.88;;;;;;;;;;5076248;28;20210;-68
2023/10/22 14:05:10;;;;;;;6.47;1.10;;;;;;;;;;5085131;28;20238;-66
2023/10/22 14:07:39;;;;;;;2.55;1.20;;;;;;;;;;5086045;28;20218;-68
2023/10/22 14:10:07;;;;;;;1.58;0.98;;;;;;;;;;5084554;28;20259;-64
2023/10/22 14:12:34;;;;;;;2.75;1.08;;;;;;;;;;5084713;28;20894;-70
2023/10/22 14:15:03;;;;;;;4.03;1.30;;;;;;;;;;5076222;28;20624;-66
2023/10/22 14:17:30;;;;;;;3.92;2.00;;;;;;;;;;5082794;28;20229;-66
2023/10/22 14:19:57;;;;;;;3.78;1.50;;;;;;;;;;5081091;28;20856;-66
2023/10/22 14:22:24;;;;;;;2.30;1.77;;;;;;;;;;5062280;28;20234;-67
2023/10/22 14:24:56;;;;;;;2.45;2.20;;;;;;;;;;5079174;28;20203;-67
2023/10/22 14:27:23;;;;;;;3.42;2.03;;;;;;;;;;5079170;28;20689;-67
2023/10/22 14:29:51;;;;;;;2.63;1.80;;;;;;;;;;5066250;28;20207;-66
2023/10/22 14:32:18;;;;;;;4.30;1.88;;;;;;;;;;5079696;28;20579;-67
2023/10/22 14:34:45;;;;;;;2.58;1.98;;;;;;;;;;5078634;28;20234;-67
2023/10/22 14:37:12;;;;;;;2.72;2.53;;;;;;;;;;5082398;28;20275;-67
2023/10/22 14:39:39;;;;;;;4.35;2.25;;;;;;;;;;5082199;28;20210;-68
2023/10/22 14:42:08;;;;;;;3.88;1.58;;;;;;;;;;5080798;28;20210;-67
2023/10/22 14:44:35;;;;;;;6.22;1.85;;;;;;;;;;5082022;28;20779;-67
2023/10/22 14:47:02;;;;;;;5.07;2.72;;;;;;;;;;5082358;28;20214;-67
2023/10/22 14:49:30;;;;;;;4.10;1.90;;;;;;;;;;5081975;28;20234;-66